YML weather

Charlevoix Airport
Charlevoix, Quebec, Canada

Public forecast

Using degrees Celsius for public forecast. Weather courtesy of forecast.io.

Closest aviation weather report (METAR) to Charlevoix Airport

Closest report is CFB Bagotville, 53.9 nm (99.8 km) NW. Retrieved 2019/10/18 07:00 UTC (36 minutes ago):

CYBG 180700Z 29011KT 8SM -RA OVC020 04/02 A2939 RMK SC8 SLP958

Aviation forecast (TAF) for Charlevoix Airport

Forecast is more than 12 hours old.

Retrieved 2018/06/10 18:00 UTC (1 year ago):

TAF CYML 101730Z 1018/1106 12005KT P6SM FEW060 FM102100 14006KT P6SM SCT080 BECMG 1021/1023 VRB03KT RMK NXT FCST BY 110000Z